x

8760721 - Pilot Town, La (pill1) Weather Station

1:30pm - Sun 1st May 2016 All times are CDT. -5 hours from GMT.

  • Wind
    9mph, 13mph gusts
  • Sea Temp 67°f
  • Air Temp 77°f
  • Sea Pressure 1014.1mb
  • 8760721 - Pilot Town, La
  • 8760721 - Pilot Town, La

More Historic Weather Station data

Upgrade to MSW Pro to gain access to the past 30 days of data for over 8000 Wavebouys and Weather Stations around the globe.

Join Pro

Comparision Forecast

View Surf forecast
   
Sun 05/01 1:30pm 9 13 mph 1014.1mb 67f 77f
1:24pm 8 13 mph 1014.1mb 67f 77f
1:18pm 9 14 mph 1013.9mb 67f 77f
1:12pm 9 15 mph 1013.7mb 67f 77f
1:06pm 11 17 mph 1013.7mb 67f 77f
1:00pm 13 18 mph 1013.7mb 67f 77f
12:54pm 14 17 mph 1013.6mb 67f 77f
12:48pm 14 17 mph 1013.6mb 67f 77f
12:42pm 10 16 mph 1013.8mb 67f 78f
12:36pm 11 18 mph 1013.8mb 67f 78f
12:30pm 15 21 mph 1013.7mb 67f 78f
12:24pm 15 21 mph 1013.7mb 67f 78f
12:18pm 11 18 mph 1013.7mb 67f 78f
12:12pm 11 20 mph 1013.6mb 67f 78f
12:06pm 15 22 mph 1013.5mb 67f 78f
12:00pm 15 22 mph 1013.5mb 67f 78f
11:54am 14 21 mph 1013.5mb 67f 78f
11:48am 16 22 mph 1013.5mb 67f 78f
11:42am 14 21 mph 1013.6mb 67f 78f
11:36am 15 21 mph 1013.8mb 67f 78f
11:30am 15 21 mph 1013.8mb 67f 78f
11:24am 13 22 mph 1013.6mb 67f 78f
11:18am 17 22 mph 1013.5mb 67f 78f
11:12am 18 22 mph 1013.5mb 67f 78f
11:06am 15 22 mph 1013.6mb 67f 78f
11:00am 17 22 mph 1013.5mb 67f 78f
10:54am 14 20 mph 1013.5mb 67f 78f
10:48am 16 23 mph 1013.4mb 67f 78f
10:42am 13 17 mph 1013.4mb 67f 78f
10:36am 16 20 mph 1013.4mb 67f 78f
10:30am 13 18 mph 1013.4mb 67f 78f
10:24am 15 22 mph 1013.4mb 67f 78f
10:18am 16 22 mph 1013.3mb 67f 78f
10:12am 18 23 mph 1013.2mb 67f 78f
10:06am 17 23 mph 1013.2mb 67f 78f
10:00am 16 23 mph 1013.2mb 67f 78f
9:54am 16 20 mph 1013.1mb 67f 77f
9:48am 15 22 mph 1013mb - -
9:42am 17 22 mph 1013.1mb - -
9:36am 14 21 mph 1013.3mb - -
9:30am 16 21 mph 1013.3mb 67f 77f
9:24am 14 17 mph 1013.4mb 67f 77f
9:18am 15 21 mph 1013.4mb 67f 77f
9:12am 15 20 mph 1013.3mb 67f 77f
9:06am 14 20 mph 1013.3mb 67f 77f
9:00am 14 20 mph 1013.3mb 67f 77f
8:54am 15 18 mph 1013.2mb 67f 77f
8:48am 13 16 mph 1013.3mb 67f 77f
8:42am 14 17 mph 1013.4mb 67f 77f
8:36am 11 16 mph 1013.3mb 67f 76f
8:30am 11 15 mph 1013.3mb 67f 77f
8:24am 9 14 mph 1013.3mb 67f 77f
8:18am 10 13 mph 1013.3mb 67f 76f
8:12am 9 13 mph 1013.4mb 67f 76f
8:06am 8 11 mph 1013.4mb 67f 76f
8:00am 8 13 mph 1013.2mb 67f 76f
7:54am 9 13 mph 1012.9mb 67f 76f
7:48am 9 14 mph 1012.7mb 67f 75f
7:42am 10 13 mph 1012.5mb 67f 75f
7:36am 9 11 mph 1012.6mb 67f 75f
7:30am 8 9 mph 1012.7mb 67f 75f
7:24am 8 11 mph 1012.6mb 67f 74f
7:18am 7 9 mph 1012.5mb 67f 74f
7:12am 6 8 mph 1012.4mb 67f 74f
7:06am 7 10 mph 1012.4mb 67f 74f
7:00am 7 9 mph 1012.3mb 67f 74f
6:54am 7 10 mph 1012.1mb 66f 74f
6:48am 6 10 mph 1012.1mb 67f 74f
6:42am 7 9 mph 1012mb 66f 74f
6:36am 8 11 mph 1011.9mb 66f 74f
6:30am 9 11 mph 1011.8mb 66f 74f
6:24am 9 13 mph 1011.7mb 66f 74f
6:18am 8 11 mph 1011.6mb 66f 74f
6:12am 8 11 mph 1011.5mb 66f 74f
6:06am 8 11 mph 1011.5mb 66f 74f
6:00am 9 13 mph 1011.4mb 66f 74f
5:54am 7 11 mph 1011.4mb 66f 74f
5:48am 8 10 mph 1011.3mb 66f 74f
5:42am 7 11 mph 1011.4mb 66f 74f
5:36am 8 11 mph 1011.4mb 66f 74f
5:30am 9 13 mph 1011.4mb 66f 74f
5:24am 8 11 mph 1011.4mb 66f 74f
5:18am 9 13 mph 1011.4mb 66f 74f
5:12am 8 10 mph 1011.4mb 66f 74f
5:06am 7 10 mph 1011.4mb 66f 74f
5:00am 8 10 mph 1011.5mb 66f 74f
4:54am 8 13 mph 1011.4mb 66f 74f
4:48am 8 11 mph 1011.5mb 66f 74f
4:42am 8 11 mph 1011.4mb 66f 74f
4:36am 9 14 mph 1011.3mb 66f 74f
4:30am 8 11 mph 1011.3mb 66f 74f
4:24am 8 11 mph 1011.3mb 66f 74f
4:18am 9 13 mph 1011.2mb 66f 74f
4:12am 10 14 mph 1011.2mb 66f 74f
4:06am 10 13 mph 1011.2mb 66f 74f
4:00am 11 14 mph 1011.2mb 66f 74f
3:54am 10 14 mph 1011.2mb 66f 74f
3:48am 11 15 mph 1011.2mb 66f 74f
3:42am 10 13 mph 1011.2mb 66f 74f
3:36am 9 13 mph 1011.2mb 66f 74f
3:30am 10 14 mph 1011.2mb 66f 74f
3:24am 10 15 mph 1011.1mb 66f 74f
3:18am 10 14 mph 1011.1mb 66f 74f
3:12am 11 14 mph 1011.1mb 66f 74f
3:06am 10 14 mph 1011mb 66f 74f
3:00am 10 14 mph 1011mb 66f 74f
2:54am 9 14 mph 1011mb 66f 74f
2:48am 10 14 mph 1011mb 66f 74f
2:42am 10 14 mph 1011mb 66f 74f
2:36am 10 14 mph 1011mb 66f 74f
2:30am 10 15 mph 1011mb 66f 74f
2:24am 10 14 mph 1011.1mb 66f 74f
2:18am 10 14 mph 1011.1mb 66f 74f
2:12am 11 16 mph 1011.1mb 66f 74f
2:06am 10 14 mph 1011.2mb 66f 74f
2:00am 10 15 mph 1011.3mb 66f 74f
1:54am 11 16 mph 1011.2mb 66f 74f
1:48am 9 15 mph 1011.3mb 66f 74f
1:42am 11 14 mph 1011.4mb 66f 74f
1:36am 10 15 mph 1011.3mb 66f 74f
1:30am 11 14 mph 1011.3mb 66f 73f
1:24am 11 15 mph 1011.4mb 66f 73f
1:18am 10 15 mph 1011.5mb 66f 73f
1:12am 10 14 mph 1011.5mb 66f 73f
1:06am 9 13 mph 1011.5mb 66f 73f
1:00am 9 14 mph 1011.5mb 66f 73f
12:54am 11 14 mph 1011.5mb 66f 73f
12:48am  -  mph 1011.5mb 66f 73f
12:42am  -  mph 1011.5mb 66f 74f
12:36am  -  mph 1011.5mb 66f 74f
12:30am 13 17 mph 1011.4mb 66f 74f
12:24am 14 17 mph 1011.4mb 66f 74f
12:18am 14 18 mph 1011.4mb 66f 74f
12:12am 15 17 mph 1011.5mb 66f 74f
12:06am 14 18 mph 1011.4mb 66f 74f
12:00am 14 17 mph 1011.4mb 66f 74f
Sat 04/30 11:54pm 14 16 mph 1011.4mb 66f 74f
11:48pm 14 17 mph 1011.3mb 66f 74f
11:42pm 15 18 mph 1011.2mb 66f 74f
11:36pm 16 20 mph 1011.2mb 66f 73f
11:30pm 15 20 mph 1011.2mb 66f 73f
11:24pm 17 20 mph 1011.3mb 66f 73f
11:18pm 17 22 mph 1011.3mb 66f 73f
11:12pm 22 24 mph 1011.1mb 66f 74f
11:06pm 21 25 mph 1011.2mb 66f 73f
11:00pm 23 25 mph 1011mb 66f 74f
10:54pm 21 23 mph 1011.1mb 66f 73f
10:48pm 18 21 mph 1011.1mb 66f 74f
10:42pm 17 22 mph 1011.2mb 66f 74f
10:36pm 21 24 mph 1011.2mb 66f 74f
10:30pm 14 18 mph 1011.4mb 66f 74f
10:24pm 15 18 mph 1011.4mb 66f 74f
10:18pm 14 17 mph 1011.3mb 66f 74f
10:12pm 14 17 mph 1011.3mb 66f 73f
10:06pm 11 17 mph 1011.4mb 66f 73f
10:00pm  -  mph - 66f -
9:54pm  -  mph - 66f -
9:48pm  -  mph 1011.9mb 66f -
9:42pm  -  mph 1011.9mb 66f -
9:36pm  -  mph 1011.9mb 66f -
9:30pm  -  mph 1012mb 66f -
9:24pm  -  mph 1012.2mb 66f -
9:18pm  -  mph 1012.6mb - 72f
9:12pm  -  mph 1012.6mb - 69f
9:06pm  -  mph 1012.6mb - 67f
9:00pm 8 11 mph 1012.8mb 66f 67f
8:54pm 8 10 mph 1012.9mb 66f 67f
8:48pm 8 10 mph 1013.2mb 66f -
8:42pm 9 14 mph 1013.5mb 66f -
8:36pm 9 13 mph 1013.3mb 66f -
8:30pm  -  mph 1013.4mb 66f -
8:24pm  -  mph 1013.4mb 66f -
8:18pm 6 8 mph 1013.4mb 66f -
8:12pm 6 9 mph 1013.4mb 66f -
8:06pm 6 10 mph 1013.2mb 66f -
8:00pm 7 11 mph 1013.2mb 66f 67f
7:54pm 7 13 mph 1013.3mb 66f 67f
7:48pm 6 9 mph 1013.6mb 66f -
7:42pm 6
mph
1013.9mb 66f -
7:36pm 5 7 mph 1014.2mb 66f -
7:30pm  -  mph 1014.1mb 66f 66f
7:24pm  -  mph 1014.2mb 66f 66f
7:18pm 7 14 mph 1014.2mb 66f -
7:12pm 14 23 mph 1014.1mb 66f -
7:06pm 21 36 mph 1013.8mb 66f -
7:00pm  -  mph 1013.1mb 66f 66f
6:54pm  -  mph 1012.6mb 66f -
6:48pm  -  mph 1011.7mb - -
6:42pm  -  mph 1011.2mb - -
6:36pm  -  mph 1012.2mb - -
6:00pm  -  mph - 66f 75f
5:54pm  -  mph - 66f 75f
5:48pm  -  mph - 66f 75f
5:42pm  -  mph - 66f 75f
5:36pm  -  mph - 66f 75f
5:30pm 5 6 mph 1011mb 66f 76f
5:24pm  -  3 mph 1011.3mb 66f 76f
5:18pm 2 5 mph 1011mb 66f -
5:12pm 3 6 mph 1010.9mb 66f -
5:06pm 3 5 mph 1010.9mb 66f -
5:00pm  -  mph 1011.2mb 66f 76f
4:54pm  -  mph 1011.4mb 66f 77f
4:48pm  -  mph 1011.7mb - -
4:42pm  -  mph 1011.8mb - -
4:36pm  -  mph 1011.6mb - -
4:30pm 3 7 mph 1011.2mb 66f 77f
4:24pm 3 8 mph 1010.7mb 66f 77f
4:18pm 6 10 mph 1010.4mb 66f 77f
4:12pm 7 11 mph 1010.1mb 66f 77f
4:06pm 8 14 mph 1010mb 66f 77f
4:00pm 11 14 mph 1009.7mb 66f 77f
3:54pm 10 16 mph 1009.5mb 66f 77f
3:48pm 11 15 mph 1009.6mb 66f 77f
3:42pm 10 14 mph 1009.6mb 66f 77f
3:36pm 9 17 mph 1009.6mb 66f 77f
3:30pm 10 18 mph 1009.6mb 66f 77f
3:24pm 10 18 mph 1009.3mb 66f 77f
3:18pm 14 21 mph 1009mb 66f 77f
3:12pm 11 22 mph 1009mb 66f 77f
3:06pm 14 21 mph 1008.9mb 66f 77f
3:00pm 14 20 mph 1008.9mb 66f 77f
2:54pm 16 22 mph 1009mb 66f 77f
2:48pm 13 20 mph 1009.1mb 66f 78f
2:42pm 14 20 mph 1009.3mb 66f 78f
2:36pm 15 20 mph 1009.3mb 66f 78f
2:30pm 14 22 mph 1009.4mb 66f 78f
2:24pm 17 23 mph 1009.6mb 66f 77f
2:18pm 17 23 mph 1009.5mb 66f 78f
2:12pm 17 23 mph 1009.6mb 67f 78f
2:06pm 14 26 mph 1009.6mb 66f 78f
2:00pm 20 26 mph 1009.6mb 66f 78f
1:54pm 16 23 mph 1009.7mb 66f 79f
1:48pm 18 23 mph 1009.9mb 66f 78f
1:42pm 15 24 mph 1010mb 66f 79f
1:36pm 17 22 mph 1010.2mb 66f 79f
1:30pm 15 21 mph 1010.2mb 66f 79f
1:24pm 16 21 mph 1010mb 66f 79f
1:18pm 15 23 mph 1009.8mb 66f 79f
1:12pm 17 23 mph 1010mb 66f 78f
1:06pm 17 25 mph 1010mb 66f 78f
1:00pm 15 21 mph 1010mb 66f 78f
12:54pm 15 25 mph 1009.9mb 66f 79f
12:48pm 21 26 mph 1009.7mb 66f 78f
12:42pm 22 25 mph 1009.8mb 66f 78f
12:36pm 16 24 mph 1009.9mb 66f 79f
12:30pm 20 25 mph 1009.8mb 66f 79f
12:24pm 17 26 mph 1010mb 66f 78f
12:18pm 18 23 mph 1010.1mb 66f 78f
12:12pm 17 24 mph 1010.3mb 66f 78f
12:06pm 17 21 mph 1010.5mb 66f 78f
12:00pm 13 23 mph 1010.5mb 66f 78f
11:54am 13 20 mph 1010.5mb 66f 78f
11:48am 16 21 mph 1010.8mb 66f 78f
11:42am 18 22 mph 1010.8mb 66f 78f
11:36am 21 23 mph 1010.7mb 66f 78f
11:30am 13 21 mph 1010.7mb 66f 78f
11:24am 18 24 mph 1010.6mb 66f 78f
11:18am 17 22 mph 1010.7mb 66f 77f
11:12am 17 23 mph 1010.8mb 66f 78f
11:06am 16 23 mph 1010.8mb 66f 78f
11:00am 17 23 mph 1010.8mb 66f 77f
10:54am 15 22 mph 1010.8mb 66f 78f
10:48am 18 22 mph 1010.6mb 66f 78f
10:42am 15 23 mph 1010.7mb 66f 78f
10:36am 15 23 mph 1010.6mb 66f 77f
10:30am 15 22 mph 1010.3mb 66f 77f
10:24am 15 22 mph 1010mb 66f 77f
10:18am 16 25 mph 1010.1mb 66f 77f
10:12am 17 22 mph 1010.2mb 66f 77f
10:06am 15 20 mph 1010.5mb 66f 77f
10:00am 15 22 mph 1010.5mb 66f 77f
9:54am 14 20 mph 1010.5mb 66f 77f
9:48am 16 21 mph 1010.4mb - -
9:42am 16 21 mph 1010.4mb - -
9:36am 14 20 mph 1010.4mb - -
9:30am 15 20 mph 1010.2mb 66f 77f
9:24am 15 20 mph 1010.1mb 66f 77f
9:18am 13 18 mph 1010.1mb 66f 76f
9:12am 14 18 mph 1010.2mb 66f 76f
9:06am 13 16 mph 1010.3mb 66f 76f
9:00am 14 20 mph 1010.2mb 66f 76f
8:54am 14 20 mph 1010.1mb 66f 76f
8:48am 14 18 mph 1010.1mb 66f 76f
8:42am 14 18 mph 1010.1mb 66f 76f
8:36am 15 22 mph 1010mb 66f 76f
8:30am 13 21 mph 1009.9mb 66f 76f
8:24am 14 20 mph 1009.9mb 66f 76f
8:18am 11 21 mph 1009.9mb 66f 76f
8:12am 14 20 mph 1009.6mb 66f 75f
8:06am 14 22 mph 1009.4mb 66f 75f
8:00am 16 24 mph 1009.5mb 66f 75f
7:54am 14 18 mph 1009.5mb 66f 75f
7:48am 11 15 mph 1009.8mb 66f 75f
7:42am 11 16 mph 1009.8mb 66f 75f
7:36am 10 14 mph 1009.9mb 66f 75f
7:30am 10 14 mph 1009.9mb 66f 75f
7:24am 8 14 mph 1009.8mb 66f 75f
7:18am 9 14 mph 1009.7mb 66f 75f
7:12am 9 16 mph 1009.6mb 66f 75f
7:06am 11 14 mph 1009.7mb 66f 75f
7:00am 11 15 mph 1009.4mb 66f 75f
6:54am 11 17 mph 1009.3mb 66f 75f
6:48am 10 16 mph 1009mb 66f 75f
6:42am 11 16 mph 1009mb 66f 75f
6:36am 11 16 mph 1008.9mb 66f 74f
6:30am 13 20 mph 1008.6mb 66f 75f
6:24am 13 17 mph 1008.4mb 66f 75f
6:18am 11 17 mph 1008.4mb 66f 74f
6:12am 11 17 mph 1008.5mb 66f 74f
6:06am 10 15 mph 1008.8mb 66f 74f
6:00am 9 14 mph 1008.8mb 66f 74f
5:54am 10 14 mph 1008.9mb 66f 75f
5:48am 10 15 mph 1008.8mb 66f 75f
5:42am 10 16 mph 1008.8mb 66f 74f
5:36am 9 14 mph 1008.9mb 66f 75f
5:30am 8 13 mph 1009.1mb 66f 74f
5:24am 7 14 mph 1009.3mb 66f 74f
5:18am 9 13 mph 1009.4mb 66f 74f
5:12am 9 13 mph 1009.5mb 66f 74f
5:06am 8 13 mph 1009.6mb 66f 74f
5:00am 8 11 mph 1009.5mb 66f 74f
4:54am 8 13 mph 1009.4mb 66f 74f
4:48am 9 14 mph 1009.3mb 66f 74f
4:42am 8 13 mph 1009.3mb 66f 74f
4:36am 9 13 mph 1009.3mb 66f 74f
4:30am 10 13 mph 1009.4mb 66f 74f
4:24am 9 11 mph 1009.5mb 66f 74f
4:18am 8 11 mph 1009.4mb 66f 74f
4:12am 7 11 mph 1009.6mb 66f 74f
4:06am 8 11 mph 1009.8mb 66f 75f
4:00am 9 11 mph 1009.7mb 66f 75f
3:54am 7 10 mph 1009.8mb 66f 75f
3:48am 8 11 mph 1009.6mb 66f 74f
3:42am 8 13 mph 1009.5mb 66f 75f
3:36am 9 11 mph 1009.6mb 66f 75f
3:30am 10 13 mph 1009.6mb 66f 75f
3:24am 8 10 mph 1009.6mb 66f 75f
3:18am 7 10 mph 1009.5mb 66f 74f
3:12am 7 13 mph 1009.6mb 66f 74f
3:06am 7 13 mph 1009.6mb 66f 74f
3:00am 10 13 mph 1009.5mb 66f 74f
2:54am 9 14 mph 1009.4mb 66f 75f
2:48am 9 13 mph 1009.2mb 66f 75f
2:42am 10 14 mph 1009.1mb 66f 74f
2:36am 10 15 mph 1009mb 66f 75f
2:30am 9 14 mph 1008.9mb 66f 74f
2:24am 10 15 mph 1009mb 66f 74f
2:18am 11 16 mph 1009mb 66f 75f
2:12am 11 15 mph 1009.1mb 66f 75f
2:06am 11 16 mph 1009.3mb 66f 74f
2:00am 11 16 mph 1009.3mb 66f 74f
1:54am 13 16 mph 1009.3mb 66f 74f
1:48am 11 17 mph 1009.4mb 66f 74f
1:42am 10 17 mph 1009.5mb 65f 74f
1:36am 13 16 mph 1009.7mb 66f 75f
1:30am 9 14 mph 1009.7mb 65f 74f
1:24am 11 15 mph 1010mb 65f 75f
1:18am 9 14 mph 1010.1mb 65f 74f
1:12am 8 14 mph 1010.3mb 65f 74f
1:06am 8 11 mph 1010.4mb 65f 74f
1:00am 7 11 mph 1010.5mb 65f 74f
12:54am 8 13 mph 1010.6mb 65f 74f
12:48am 7 10 mph 1010.8mb - -
12:42am 7 10 mph 1010.7mb - -
12:36am 7 11 mph 1010.8mb - -
12:30am 8 11 mph 1010.9mb 65f 74f
12:24am 7 10 mph 1011.1mb 65f 74f
12:18am 7 11 mph 1011mb 65f 74f
12:12am 8 11 mph 1011mb 65f 74f
12:06am 7 11 mph 1011.1mb 65f 74f
12:00am 7 11 mph 1011.2mb 65f 74f
Fri 04/29 11:54pm 7 10 mph 1011.3mb 65f 74f
11:48pm 7 9 mph 1011.3mb 65f 74f
11:42pm 7 10 mph 1011.4mb 65f 74f
11:36pm 9 13 mph 1011.2mb 65f 74f
11:30pm 9 13 mph 1011.3mb 65f 74f
11:24pm 8 13 mph 1011.3mb 65f 74f
11:18pm 8 10 mph 1011.4mb 65f 74f
11:12pm 6 10 mph 1011.5mb 65f 74f
11:06pm 7 9 mph 1011.6mb 65f 74f
11:00pm 7 9 mph 1011.6mb 65f 74f
10:54pm 6 10 mph 1011.5mb 65f 74f
10:48pm 7 10 mph 1011.6mb 65f 74f
10:42pm 7 10 mph 1011.7mb 65f 74f
10:36pm 7 10 mph 1011.8mb 65f 74f
10:30pm 7 8 mph 1011.9mb 65f 74f
10:24pm 5 8 mph 1011.9mb 65f 74f
10:18pm 7 9 mph 1011.9mb 65f 74f
10:12pm 6 9 mph 1011.8mb 65f 74f
10:06pm 6 8 mph 1011.8mb 65f 74f
10:00pm  -  mph - 65f 74f
9:54pm  -  mph - 65f 74f
9:48pm 7 9 mph 1011.7mb 65f -
9:42pm 7 10 mph 1011.7mb 65f -
9:36pm 6 9 mph 1011.5mb 65f -
9:30pm 6 11 mph 1011.5mb 65f -
9:24pm 7 10 mph 1011.4mb 65f -
9:18pm 7 13 mph 1011.3mb 65f 74f
9:12pm 9 13 mph 1011.2mb 65f 74f
9:06pm 9 11 mph 1011.1mb 65f 74f
9:00pm  -  mph 1011.1mb 65f 74f
8:54pm  -  mph 1011mb 65f 74f
8:48pm 6 9 mph 1011.1mb 65f -
8:42pm 7 10 mph 1011.2mb 65f -
8:36pm 7 14 mph 1011.5mb 65f -
8:30pm  -  mph - 65f -
8:24pm  -  mph - 65f -
8:18pm 7 13 mph 1011.4mb 65f 75f
8:12pm 7 11 mph 1011.4mb 65f 75f
8:06pm 7 11 mph 1011.4mb 65f 75f
8:00pm  -  mph 1011.4mb 65f 75f
7:54pm  -  mph 1011.4mb 65f 75f
7:48pm  -  mph 1011.2mb - -
7:42pm  -  mph 1011.3mb - -
7:36pm  -  mph 1011.4mb - -
7:30pm  -  mph 1011.4mb 65f -
7:24pm  -  mph 1011.3mb 65f -
7:18pm  -  mph 1011.3mb 66f 76f
7:12pm  -  mph 1011.3mb 66f 76f
7:06pm  -  mph 1011.3mb 66f 76f
7:00pm  -  mph 1011.3mb 66f -
6:54pm  -  mph 1011.1mb 66f -
6:48pm  -  mph 1011.1mb - -
6:42pm  -  mph 1011.1mb - -
6:36pm  -  mph 1011.2mb - -
6:30pm 9 14 mph 1011mb 66f 77f
6:24pm 9 15 mph 1010.9mb 66f 77f
6:18pm  -  mph 1011mb 66f 77f
6:12pm  -  mph 1011mb 66f 77f
6:06pm  -  mph 1011mb 66f 77f
6:00pm  -  mph 1010.8mb 66f 77f
5:54pm  -  mph 1010.8mb 66f 77f
5:48pm  -  mph 1010.7mb 66f -
5:42pm  -  mph 1010.7mb 66f -
5:36pm  -  mph 1010.7mb 66f -
5:30pm 14 18 mph 1010.7mb 66f -
5:24pm 11 16 mph 1010.7mb 66f -
5:18pm 14 16 mph 1010.6mb 66f 78f
5:12pm 14 18 mph 1010.6mb 66f 78f
5:06pm 14 21 mph 1010.5mb 66f 78f
5:00pm  -  mph 1010.6mb 66f 78f
4:54pm  -  mph 1010.6mb 66f 78f
4:48pm 14 20 mph 1010.7mb 66f -
4:42pm 15 20 mph 1010.8mb 66f -
4:36pm 15 20 mph 1010.8mb 66f -
4:30pm 15 18 mph 1011mb 66f 78f
4:24pm 16 20 mph 1011mb 66f 78f
4:18pm 14 20 mph 1011.1mb 66f 78f
4:12pm 16 23 mph 1011.2mb 66f 78f
4:06pm 14 20 mph 1011.3mb 66f 79f
4:00pm 14 22 mph 1011.3mb 66f 78f
3:54pm 14 23 mph 1011.4mb 66f 79f
3:48pm 15 22 mph 1011.5mb 66f 79f
3:42pm 15 20 mph 1011.7mb 66f 78f
3:36pm 15 18 mph 1011.8mb 66f 79f
3:30pm 13 18 mph 1012mb 66f 79f
3:24pm 14 17 mph 1012.1mb 66f 79f
3:18pm 14 20 mph 1012.2mb 66f 79f
3:12pm 11 17 mph 1012.2mb 66f 79f
3:06pm 11 18 mph 1012.4mb 66f 79f
3:00pm 15 18 mph 1012.3mb 66f 79f
2:54pm 16 21 mph 1012.2mb 66f 78f
2:48pm 17 20 mph 1012.2mb 66f 78f
2:42pm 15 20 mph 1012.2mb 66f 78f
2:36pm 15 21 mph 1012.3mb 66f 78f
2:30pm 17 21 mph 1012.3mb 66f 78f
2:24pm 16 21 mph 1012.2mb 66f 78f
2:18pm 18 23 mph 1012.2mb 66f 78f
2:12pm 20 22 mph 1012.3mb 66f 78f
2:06pm 17 22 mph 1012.4mb 66f 79f
2:00pm 17 21 mph 1012.5mb 66f 78f
1:54pm 15 22 mph 1012.6mb 66f 78f
1:48pm 18 24 mph 1012.6mb 66f 79f
1:42pm 16 21 mph 1012.5mb 66f 78f
1:36pm 16 22 mph 1012.5mb 66f 78f
1:30pm 16 22 mph 1012.5mb 65f 78f
1:24pm 17 22 mph 1012.6mb 65f 78f
1:18pm 15 18 mph 1012.7mb 65f 78f
1:12pm 17 21 mph 1012.8mb 65f 78f
1:06pm 17 22 mph 1012.8mb 65f 78f
1:00pm 15 20 mph 1012.9mb 66f 78f
12:54pm 15 21 mph 1013mb 65f 78f
12:48pm 15 21 mph 1013.1mb 65f 78f
12:42pm 15 20 mph 1013.2mb 66f 78f
12:36pm 16 21 mph 1013.4mb 65f 78f
12:30pm 14 20 mph 1013.5mb 65f 78f
12:24pm 15 21 mph 1013.5mb 65f 78f
12:18pm 13 20 mph 1013.6mb 65f 78f
12:12pm 16 18 mph 1013.7mb 65f 78f
12:06pm 15 18 mph 1013.8mb 65f 78f
12:00pm 14 18 mph 1013.9mb 65f 78f
11:54am 13 17 mph 1014mb 65f 77f
11:48am 14 18 mph 1014mb 65f 76f
11:42am 16 21 mph 1013.9mb 65f 77f
11:36am 14 16 mph 1014mb 65f 77f
11:30am 14 16 mph 1014mb 65f 77f
11:24am 14 17 mph 1013.9mb 65f 77f
11:18am 14 18 mph 1014mb 65f 78f
11:12am 13 16 mph 1014mb 65f 77f
11:06am 14 17 mph 1014mb 65f 78f
11:00am 13 20 mph 1014mb 65f 78f
10:54am 14 20 mph 1013.9mb 65f 78f
10:48am 15 23 mph 1013.9mb 65f 78f
10:42am 14 18 mph 1013.9mb 65f 77f
10:36am 14 20 mph 1013.8mb 65f 78f
10:30am 16 21 mph 1013.8mb 65f 78f
10:24am 17 23 mph 1013.7mb 65f 78f
10:18am 18 25 mph 1013.7mb 65f 78f
10:12am 16 23 mph 1013.6mb 65f 78f
10:06am 16 21 mph 1013.6mb 65f 78f
10:00am 15 26 mph 1013.7mb 65f 78f
9:54am 16 22 mph 1013.6mb 65f 78f
9:48am 16 22 mph 1013.7mb 65f 78f
9:42am 17 22 mph 1013.6mb 65f 77f
9:36am 11 22 mph 1013.5mb 65f 78f
9:30am 17 22 mph 1013.5mb 65f 77f
9:24am 15 21 mph 1013.6mb 65f 77f
9:18am 16 21 mph 1013.6mb 65f 77f
9:12am 16 21 mph 1013.5mb 65f 76f
9:06am 14 22 mph 1013.5mb 65f 76f
9:00am 14 20 mph 1013.6mb 65f 76f
8:54am 14 18 mph 1013.6mb 65f 76f
8:48am 10 15 mph 1013.7mb 65f 76f
8:42am 11 15 mph 1013.8mb 65f 75f
8:36am 14 17 mph 1013.8mb 65f 75f
8:30am 10 15 mph 1013.8mb 65f 75f
8:24am 10 14 mph 1013.8mb 65f 75f
8:18am 11 16 mph 1013.9mb 65f 75f
8:12am 11 16 mph 1013.8mb 65f 75f
8:06am 9 14 mph 1013.9mb 65f 75f
8:00am 13 16 mph 1013.8mb 65f 75f
7:54am 9 14 mph 1013.8mb 65f 75f
7:48am 10 16 mph 1013.7mb 65f 75f
7:42am 11 15 mph 1013.8mb 65f 74f
7:36am 9 16 mph 1013.8mb 65f 74f
7:30am 10 16 mph 1013.7mb 65f 74f
7:24am 9 13 mph 1013.6mb 65f 74f
7:18am 10 15 mph 1013.5mb 65f 74f
7:12am 9 13 mph 1013.5mb 65f 74f
7:06am 10 14 mph 1013.5mb 65f 74f
7:00am 11 16 mph 1013.5mb 65f 74f
6:54am 9 14 mph 1013.5mb 65f 74f
6:48am 10 14 mph 1013.6mb 65f 74f
6:42am 11 15 mph 1013.4mb 65f 74f
6:36am 10 14 mph 1013.4mb 65f 74f
6:30am 11 14 mph 1013.3mb 65f 74f
6:24am 11 14 mph 1013.2mb 65f 74f
6:18am 9 14 mph 1013.2mb 65f 73f
6:12am 9 14 mph 1013.1mb 65f 74f
6:06am 9 14 mph 1013.1mb 65f 73f
6:00am 8 13 mph 1013mb 65f 73f
5:54am 8 13 mph 1013mb 65f 73f
5:48am 10 15 mph 1013mb 65f 73f
5:42am 10 13 mph 1012.9mb 65f 73f
5:36am 8 11 mph 1012.9mb 65f 73f
5:30am 9 13 mph 1012.9mb 65f 73f
5:24am 7 13 mph 1012.9mb 65f 73f
5:18am 8 10 mph 1012.8mb 65f 73f
5:12am 9 13 mph 1012.8mb 65f 73f
5:06am 8 15 mph 1012.8mb 65f 73f
5:00am 10 14 mph 1012.8mb 65f 73f
4:54am 8 11 mph 1012.8mb 65f 73f
4:48am 8 10 mph 1012.9mb 65f 73f
4:42am 6 9 mph 1013.1mb 65f 73f
4:36am 6 10 mph 1013.1mb 65f 73f
4:30am 6 10 mph 1013mb 65f 73f
4:24am 6 8 mph 1013mb 65f 73f
4:18am 6 9 mph 1012.9mb 65f 73f
4:12am 5 8 mph 1012.9mb 65f 73f
4:06am 6 8 mph 1012.8mb 65f 73f
4:00am 6 9 mph 1012.8mb 65f 73f
3:54am 8 10 mph 1012.8mb 65f 73f
3:48am 7 8 mph 1012.9mb 65f 73f
3:42am 7 10 mph 1012.9mb 65f 73f
3:36am 7 10 mph 1013mb 65f 73f
3:30am 7 10 mph 1013mb 65f 73f
3:24am 8 11 mph 1013mb 65f 73f
3:18am 7 11 mph 1013.1mb 65f 73f
3:12am 9 10 mph 1013.1mb 65f 73f
3:06am 6 10 mph 1013.2mb 65f 73f
3:00am 8 11 mph 1013.2mb 65f 73f
2:54am 7 11 mph 1013.2mb 65f 73f
2:48am 8 10 mph 1013.2mb 65f 72f
2:42am 7 10 mph 1013.3mb 65f 72f
2:36am 8 11 mph 1013.3mb 65f 72f
2:30am 7 8 mph 1013.2mb 65f 72f
2:24am 6 8 mph 1013.3mb 65f 72f
2:18am 6 9 mph 1013.3mb 65f 72f
2:12am 7 9 mph 1013.2mb 65f 72f
2:06am 7 8 mph 1013.3mb 65f 72f
2:00am 6 7 mph 1013.3mb 65f 72f
1:54am 6 7 mph 1013.2mb 65f 72f
1:48am 6 7 mph 1013.3mb 65f 71f
1:42am 6 7 mph 1013.3mb 65f 72f
1:36am 5 6 mph 1013.3mb 65f 72f
1:30am 5
mph
1013.3mb 65f 72f
1:24am 5 6 mph 1013.3mb 65f 72f
1:18am 6
mph
1013.3mb 65f 72f
1:12am 5 6 mph 1013.4mb 65f 72f
1:06am 5 6 mph 1013.5mb 65f 72f
1:00am 5 7 mph 1013.5mb 65f 72f
12:54am 5 6 mph 1013.4mb 65f 72f
12:48am 6 7 mph 1013.5mb 65f 72f
12:42am 6 7 mph 1013.5mb 65f 72f
12:36am 6 8 mph 1013.6mb 65f 72f
12:30am 6 7 mph 1013.5mb 65f 72f
12:24am 6 7 mph 1013.5mb 65f 72f
12:18am 6 8 mph 1013.5mb 65f 72f
12:12am 6 7 mph 1013.6mb 65f 72f
12:06am 6 7 mph 1013.6mb 65f 72f
12:00am 6 7 mph 1013.7mb 65f 72f
Thu 04/28 11:54pm 5 6 mph 1013.8mb 65f 72f
11:48pm 5 6 mph 1013.8mb 65f 72f
11:42pm 5 6 mph 1013.7mb 65f 72f
11:36pm 5 6 mph 1013.8mb 65f 72f
11:30pm 6 7 mph 1013.8mb 65f 72f
11:24pm 5 7 mph 1013.8mb 65f 72f
11:18pm 5 6 mph 1013.8mb 65f 72f
11:12pm 6
mph
1013.8mb 65f 72f
11:06pm 5 6 mph 1013.8mb 65f 72f
11:00pm 5 6 mph 1013.9mb 65f 71f
10:54pm 5
mph
1013.9mb 65f 71f
10:48pm 3 5 mph 1014mb 65f 71f
10:42pm 5 6 mph 1014mb 65f 71f
10:36pm 6
mph
1014mb 65f 71f
10:30pm 5 6 mph 1014mb 65f 70f
10:24pm 6
mph
1014mb 65f 70f
10:18pm 6
mph
1014.1mb 65f 70f
10:12pm 5 6 mph 1014mb 65f 69f
10:06pm 6
mph
1014mb 65f 70f
10:00pm  -  mph 1014.1mb 65f 70f
9:54pm  -  mph 1014mb 65f 70f
9:48pm  -  mph 1014mb - -
9:42pm  -  mph 1014.1mb - -
9:36pm  -  mph 1014.2mb - -
9:30pm  -  mph 1014.2mb - -
9:24pm  -  mph 1014.1mb - -
9:18pm 5 7 mph 1014.1mb 65f 72f
9:12pm 6 8 mph 1014.1mb 65f 72f
9:06pm 7 8 mph 1014.1mb 65f 72f
9:00pm  -  mph 1014.1mb 65f -
8:54pm  -  mph 1014.2mb 65f -
8:48pm  -  mph 1014.2mb - -
8:42pm  -  mph 1014.2mb - -
8:36pm  -  mph 1014.2mb - -
8:30pm 5 7 mph 1014.2mb 65f 73f
8:24pm 5 7 mph 1014.2mb 65f 73f
8:18pm  -  mph 1014.2mb 65f 72f
8:12pm  -  mph 1014.2mb 65f 72f
8:06pm  -  mph 1014.1mb 65f 72f
8:00pm  -  mph 1014.1mb 65f 72f
7:54pm  -  mph 1014.1mb 65f 72f
7:48pm 6 7 mph 1014mb 65f -
7:42pm 6 9 mph 1014mb 65f -
7:36pm 8 9 mph 1013.9mb 65f -
7:30pm  -  mph 1013.9mb 65f -
7:24pm  -  mph 1013.9mb 65f -
7:18pm 6 11 mph 1013.8mb 65f 74f
7:12pm 8 11 mph 1013.7mb 65f 74f
7:06pm 9 11 mph 1013.6mb 65f 74f
7:00pm  -  mph 1013.6mb 65f 74f
6:54pm  -  mph 1013.7mb 65f 74f
6:48pm  -  mph 1013.8mb 65f 74f
6:42pm  -  mph 1013.7mb 65f 75f
6:36pm  -  mph 1013.7mb 65f 75f
6:30pm  -  mph 1013.7mb 65f -
6:24pm  -  mph 1013.7mb 65f -
6:18pm  -  mph 1013.7mb 65f -
6:12pm  -  mph 1013.9mb 65f -
6:06pm  -  mph 1014mb 65f -
6:00pm  -  mph 1014.1mb 65f 75f
5:54pm  -  mph 1014.1mb 65f 75f
5:48pm  -  mph 1014.1mb 65f 75f
5:42pm  -  mph 1014.1mb 65f 75f
5:36pm  -  mph 1014.1mb 65f 75f
5:30pm  -  mph 1014mb 65f 74f
5:24pm  -  mph 1013.9mb 65f 75f
5:18pm 14 20 mph 1013.9mb 65f 74f
5:12pm 11 18 mph 1013.7mb 65f 75f
5:06pm 11 20 mph 1013.7mb 65f 76f
5:00pm  -  mph 1013.7mb 65f 76f
4:54pm  -  mph 1013.7mb 65f 75f
4:48pm  -  mph 1013.6mb 65f -
4:42pm  -  mph 1013.5mb 65f -
4:36pm  -  mph 1013.7mb 65f -
4:30pm 10 21 mph 1013.8mb 65f 75f
4:24pm 14 20 mph 1013.7mb 65f 74f
4:18pm 11 20 mph 1013.8mb 65f 74f
4:12pm 11 20 mph 1013.9mb 65f 74f
4:06pm 14 18 mph 1014mb 65f 74f
4:00pm 16 21 mph 1014mb 65f 74f
3:54pm 13 22 mph 1014mb 65f 73f
3:48pm 11 17 mph 1014.1mb 65f 74f
3:42pm 10 16 mph 1014.1mb 65f 73f
3:36pm 11 16 mph 1014.3mb 65f 72f
3:30pm 14 20 mph 1014.6mb 65f 72f
3:24pm 15 20 mph 1014.5mb 65f 72f
3:18pm 11 16 mph 1014.5mb 65f 72f
3:12pm 9 20 mph 1014.6mb 65f 72f
3:06pm 14 21 mph 1014.9mb 65f 73f
3:00pm 14 22 mph 1014.8mb 65f 74f
2:54pm 11 14 mph 1014.8mb 65f 78f
2:48pm 3
mph
1015mb 65f 78f
2:42pm 1 6 mph 1015mb 65f 80f
2:36pm 6 9 mph 1015mb 65f 79f
2:30pm 8 9 mph 1015mb 65f 80f
2:24pm 7 10 mph 1014.9mb 65f 79f
2:18pm 7 9 mph 1014.9mb 65f 79f
2:12pm 7 9 mph 1014.9mb 65f 79f
2:06pm 6 8 mph 1014.8mb 65f 79f
2:00pm 6 8 mph 1014.8mb 65f 79f
1:54pm 6 9 mph 1014.7mb 65f 78f
1:48pm 8
mph
1014.6mb 65f 77f
1:42pm 5
mph
1014.5mb 65f 77f
1:36pm 2
mph
1014.4mb 65f 78f
1:30pm  -  1 mph 1014.2mb 65f 82f
1:24pm 1 2 mph 1014.1mb 65f 80f
1:18pm 3 5 mph 1014.2mb 65f 79f
1:12pm 3 5 mph 1014.3mb 65f 77f
1:06pm 5 6 mph 1014.3mb 65f 78f
1:00pm 3 6 mph 1014.2mb 65f 78f
12:54pm 5 8 mph 1014.1mb 65f 80f
12:48pm 7 10 mph 1014mb 65f 80f
12:42pm 9 11 mph 1013.8mb 65f 79f
12:36pm 9 11 mph 1013.7mb 65f 79f
12:30pm 10 14 mph 1013.6mb 65f 79f
12:24pm 13 15 mph 1013.5mb 65f 78f
12:18pm 13 14 mph 1013.4mb 65f 78f
12:12pm 11 14 mph 1013.4mb 65f 78f
12:06pm 9 13 mph 1013.6mb 65f 78f
12:00pm 11 15 mph 1013.6mb 65f 79f
11:54am 14 15 mph 1013.6mb 65f 79f
11:48am 13 16 mph 1013.6mb 65f 78f
11:42am 14 17 mph 1013.5mb 65f 78f
11:36am 15 18 mph 1013.4mb 65f 78f
11:30am 15 22 mph 1013.5mb 65f 78f
11:24am 16 23 mph 1013.5mb 65f 78f
11:18am 16 20 mph 1013.5mb 65f 78f
11:12am 18 23 mph 1013.4mb 65f 78f
11:06am 16 22 mph 1013.4mb 64f 78f
11:00am 18 22 mph 1013.3mb 64f 78f
10:54am 16 20 mph 1013.3mb 64f 78f
10:48am 14 16 mph 1013.4mb 64f 77f
10:42am 10 13 mph 1013.4mb 64f 76f
10:36am 10 17 mph 1013.4mb 64f 76f
10:30am 11 13 mph 1013.3mb 64f 76f
10:24am 11 15 mph 1013.2mb 64f 75f
10:18am 13 14 mph 1013.2mb 64f 75f
10:12am 13 14 mph 1013.2mb 64f 75f
10:06am 11 13 mph 1013.3mb 64f 75f
10:00am 10 11 mph 1013.3mb 64f 74f
9:54am 9
mph
1013.3mb 64f 75f
9:48am 7 8 mph 1013.3mb 64f -
9:42am 7
mph
1013.4mb 64f -
9:36am 7
mph
1013.5mb 64f -
9:30am 7 8 mph 1013.4mb 64f 74f
9:24am 6 7 mph 1013.4mb 64f 74f
9:18am 6 7 mph 1013.3mb 64f 74f
9:12am 7 8 mph 1013.1mb 64f 73f
9:06am 7 8 mph 1012.9mb 64f 72f
9:00am 7 8 mph 1012.8mb 64f 73f
8:54am 6 7 mph 1012.8mb 64f 73f
8:48am 7
mph
1012.7mb 64f -
8:42am 6
mph
1012.5mb 64f -
8:36am 6
mph
1012.5mb 64f -
8:30am 6
mph
1012.6mb 64f 73f
8:24am 6 7 mph 1012.5mb 64f 72f
8:18am 6 8 mph 1012.4mb 64f 71f
8:12am 6 7 mph 1012.4mb 64f 72f
8:06am 6 7 mph 1012.4mb 64f 72f
8:00am 7
mph
1012.3mb 64f 72f
7:54am 7
mph
1012.2mb 64f 73f
7:48am 6
mph
1012.1mb 64f 73f
7:42am 6 7 mph 1012mb 64f 72f
7:36am 6 7 mph 1012mb 64f 72f
7:30am 3 5 mph 1011.9mb 64f 71f
7:24am 3 5 mph 1011.9mb 64f 71f
7:18am 5 6 mph 1011.7mb 64f 72f
7:12am 6
mph
1011.5mb 64f 71f
7:06am 5
mph
1011.5mb 64f 72f
7:00am 5 6 mph 1011.5mb 64f 72f
6:54am 5 6 mph 1011.4mb 64f 72f
6:48am 5 6 mph 1011.3mb 64f 72f
6:42am 6 7 mph 1011.2mb 64f 72f
6:36am 7
mph
1011mb 64f 71f
6:30am 7
mph
1010.9mb 64f 72f
6:24am 7
mph
1010.9mb 64f 72f
6:18am 7
mph
1010.8mb 64f 72f
6:12am 6 7 mph 1010.7mb 64f 71f
6:06am 6
mph
1010.7mb 64f 71f
6:00am 6
mph
1010.6mb 64f 71f
5:54am 6 7 mph 1010.6mb 64f 71f
5:48am 6 7 mph 1010.5mb 64f 70f
5:42am 7
mph
1010.4mb 64f 69f
5:36am 7 9 mph 1010.2mb 64f 69f
5:30am 9 10 mph 1010.2mb 64f 70f
5:24am 9
mph
1010.2mb 64f 71f
5:18am 8 9 mph 1010.2mb 64f 70f
5:12am 7 8 mph 1010.2mb 64f 70f
5:06am 7 8 mph 1010.2mb 64f 69f
5:00am 7 8 mph 1010.2mb 64f 69f
4:54am 6 7 mph 1010.2mb 64f 69f
4:48am 6 7 mph 1010.2mb 64f 69f
4:42am 7 8 mph 1010.2mb 64f 70f
4:36am 8 9 mph 1010.1mb 64f 70f
4:30am 6 7 mph 1010.1mb 64f 70f
4:24am 6 7 mph 1010.1mb 64f 71f
4:18am 6 7 mph 1010.2mb 64f 71f
4:12am 6 9 mph 1010.2mb 64f 71f
4:06am 8 9 mph 1010.1mb 64f 71f
4:00am 8 10 mph 1010mb 64f 71f
3:54am 9 10 mph 1010mb 64f 71f
3:48am 8 10 mph 1009.9mb 64f 71f
3:42am 9 11 mph 1009.8mb 64f 71f
3:36am 10 13 mph 1009.8mb 64f 71f
3:30am 10 14 mph 1009.7mb 64f 71f
3:24am 11 14 mph 1009.7mb 64f 71f
3:18am 11 14 mph 1009.7mb 64f 71f
3:12am 11 14 mph 1009.6mb 64f 71f
3:06am 11 14 mph 1009.6mb 64f 71f
3:00am 13 15 mph 1009.6mb 64f 71f
2:54am 15 17 mph 1009.5mb 64f 71f
2:48am 15 17 mph 1009.4mb 64f 71f
2:42am 15 17 mph 1009.4mb 64f 71f
2:36am 15 16 mph 1009.4mb 64f 71f
2:30am 14 16 mph 1009.5mb 64f 71f
2:24am 14 16 mph 1009.5mb 64f 71f
2:18am 14 16 mph 1009.5mb 64f 71f
2:12am 14 15 mph 1009.6mb 64f 71f
2:06am 13 14 mph 1009.6mb 64f 71f
2:00am 13 14 mph 1009.6mb 64f 71f
1:54am 13 14 mph 1009.6mb 64f 71f
1:48am 11 13 mph 1009.7mb 64f 71f
1:42am 11 14 mph 1009.7mb 64f 71f
1:36am 13
mph
1009.8mb 64f 71f
1:30am 11 13 mph 1009.8mb 64f 71f
1:24am 9 11 mph 1009.8mb 64f 70f
1:18am 10 11 mph 1009.8mb 64f 71f
1:12am 10 11 mph 1009.7mb 64f 71f
1:06am 9 10 mph 1009.8mb 64f 71f
1:00am 10 11 mph 1009.7mb 64f 71f
12:54am 10 11 mph 1009.7mb 64f 71f
12:48am 11 13 mph 1009.6mb 64f 71f
12:42am 10 13 mph 1009.6mb 64f 71f
12:36am 9 11 mph 1009.6mb 64f 72f
12:30am 9 13 mph 1009.6mb 64f 72f
12:24am 9 11 mph 1009.7mb 64f 71f
12:18am 9 11 mph 1009.7mb 64f 71f
12:12am 9 11 mph 1009.6mb 64f 71f
12:06am 9 10 mph 1009.7mb 64f 71f
12:00am 8 9 mph 1009.7mb 64f 71f
Wed 04/27 11:54pm 7 9 mph 1009.7mb 64f 71f
11:48pm 7 9 mph 1009.8mb 64f 71f
11:42pm 7 10 mph 1009.8mb 64f 71f
11:36pm 8 9 mph 1009.8mb 64f 70f
11:30pm 8 10 mph 1009.8mb 64f 70f
11:24pm 8 9 mph 1009.8mb 64f 70f
11:18pm 9
mph
1009.7mb 64f 69f
11:12pm 9 10 mph 1009.7mb 64f 69f
11:06pm 9 10 mph 1009.7mb 64f 69f
11:00pm 9 10 mph 1009.7mb 64f 69f
10:54pm 9 10 mph 1009.7mb 64f 69f
10:48pm  -  mph 1009.7mb 64f 69f
10:42pm  -  mph 1009.7mb 64f 70f
10:36pm  -  mph 1009.7mb 64f 70f
10:30pm 8
mph
1009.6mb 64f 70f
10:24pm 8 9 mph 1009.6mb 64f 69f
10:18pm 7 8 mph 1009.6mb 64f 70f
10:12pm 7 9 mph 1009.6mb 64f 70f
10:06pm 8 9 mph 1009.6mb 64f 70f
10:00pm  -  mph 1009.5mb 64f 70f
9:54pm  -  mph 1009.5mb 64f 69f
9:48pm  -  mph - 64f -
9:42pm  -  mph - 64f -
9:36pm  -  mph - 64f -
9:30pm  -  mph 1009.4mb 64f -
9:24pm  -  mph 1009.3mb 64f -
9:18pm 7 9 mph 1009.3mb - 68f
9:12pm 8 9 mph 1009.3mb - 68f
9:06pm 9
mph
1009.2mb - 69f
9:00pm  -  mph 1009.1mb 64f -
8:54pm  -  mph 1009.1mb 64f -
8:48pm  -  mph 1009.1mb 64f -
8:42pm  -  mph 1009mb 64f -
8:36pm  -  mph 1009mb 64f -
8:30pm  -  mph - 64f -
8:24pm  -  mph - 64f -
8:18pm  -  mph 1008.9mb 64f -
8:12pm  -  mph 1009mb 64f -
8:06pm  -  mph 1009mb 64f -
8:00pm  -  mph 1009mb 64f 71f
7:54pm  -  mph 1009mb 64f 71f
7:48pm  -  mph 1009mb - -
7:42pm  -  mph 1009mb - -
7:36pm  -  mph 1009mb - -
7:30pm  -  mph 1009mb 64f -